Aviation Digital Data Service (ADDS)

Output produced by TAFs form (1331 UTC 25 September 2017)
found at http://www.aviationweather.gov/adds/tafs/
 
METAR text: RJCW 250900Z 26009KT 9999 FEW020 SCT/// 13/09 Q1009
Conditions at: RJCW (WAKKANAI AIRPORT, JP) observed 0900 UTC 25 September 2017
Temperature: 13.0°C (55°F)
Dewpoint: 9.0°C (48°F) [RH = 77%]
Pressure (altimeter): 29.79 inches Hg (1009.0 mb)
Winds: from the W (260 degrees) at 10 MPH (9 knots; 4.7 m/s)
Visibility: 6 or more miles (10+ km)
Ceiling: at least 12,000 feet AGL
Clouds: few clouds at 2000 feet AGL
Weather: no significant weather observed at this time